sensor_id;sensor_type;location;lat;lon;timestamp;temperature;humidity
64143;DHT22;50437;51.970;5.904;2022-08-21T00:00:06;17.10;87.20
64143;DHT22;50437;51.970;5.904;2022-08-21T00:02:43;17.10;86.80
64143;DHT22;50437;51.970;5.904;2022-08-21T00:05:09;17.00;85.80
64143;DHT22;50437;51.970;5.904;2022-08-21T00:07:35;17.10;85.50
64143;DHT22;50437;51.970;5.904;2022-08-21T00:10:02;17.00;85.60
64143;DHT22;50437;51.970;5.904;2022-08-21T00:12:28;17.00;85.70
64143;DHT22;50437;51.970;5.904;2022-08-21T00:14:57;17.00;86.10
64143;DHT22;50437;51.970;5.904;2022-08-21T00:17:23;16.90;86.20
64143;DHT22;50437;51.970;5.904;2022-08-21T00:19:57;16.90;86.50
64143;DHT22;50437;51.970;5.904;2022-08-21T00:22:23;16.90;86.70
64143;DHT22;50437;51.970;5.904;2022-08-21T00:24:49;16.90;88.00
64143;DHT22;50437;51.970;5.904;2022-08-21T00:27:15;16.90;88.30
64143;DHT22;50437;51.970;5.904;2022-08-21T00:29:41;16.90;87.90
64143;DHT22;50437;51.970;5.904;2022-08-21T00:32:07;16.80;87.70
64143;DHT22;50437;51.970;5.904;2022-08-21T00:34:44;16.80;88.20
64143;DHT22;50437;51.970;5.904;2022-08-21T00:37:10;16.80;88.20
64143;DHT22;50437;51.970;5.904;2022-08-21T00:39:37;16.70;88.30
64143;DHT22;50437;51.970;5.904;2022-08-21T00:42:03;16.70;88.60
64143;DHT22;50437;51.970;5.904;2022-08-21T00:44:30;16.80;88.40
64143;DHT22;50437;51.970;5.904;2022-08-21T00:46:59;16.70;88.60
64143;DHT22;50437;51.970;5.904;2022-08-21T00:49:25;16.80;88.90
64143;DHT22;50437;51.970;5.904;2022-08-21T00:51:53;16.80;89.10
64143;DHT22;50437;51.970;5.904;2022-08-21T00:54:21;16.80;89.80
64143;DHT22;50437;51.970;5.904;2022-08-21T00:56:52;16.70;89.60
64143;DHT22;50437;51.970;5.904;2022-08-21T00:59:19;16.60;89.40
64143;DHT22;50437;51.970;5.904;2022-08-21T01:01:46;16.60;89.60
64143;DHT22;50437;51.970;5.904;2022-08-21T01:04:12;16.60;88.90
64143;DHT22;50437;51.970;5.904;2022-08-21T01:06:38;16.60;89.30
64143;DHT22;50437;51.970;5.904;2022-08-21T01:09:05;16.60;89.50
64143;DHT22;50437;51.970;5.904;2022-08-21T01:11:37;16.60;89.40
64143;DHT22;50437;51.970;5.904;2022-08-21T01:14:07;16.60;89.90
64143;DHT22;50437;51.970;5.904;2022-08-21T01:16:33;16.50;90.00
64143;DHT22;50437;51.970;5.904;2022-08-21T01:19:01;16.50;89.50
64143;DHT22;50437;51.970;5.904;2022-08-21T01:21:27;16.50;90.00
64143;DHT22;50437;51.970;5.904;2022-08-21T01:23:54;16.50;90.00
64143;DHT22;50437;51.970;5.904;2022-08-21T01:26:27;16.50;90.00
64143;DHT22;50437;51.970;5.904;2022-08-21T01:28:57;16.40;89.90
64143;DHT22;50437;51.970;5.904;2022-08-21T01:31:25;16.40;90.00
64143;DHT22;50437;51.970;5.904;2022-08-21T01:33:51;16.30;90.20
64143;DHT22;50437;51.970;5.904;2022-08-21T01:36:18;16.30;90.10
64143;DHT22;50437;51.970;5.904;2022-08-21T01:38:44;16.30;90.20
64143;DHT22;50437;51.970;5.904;2022-08-21T01:41:10;16.20;90.10
64143;DHT22;50437;51.970;5.904;2022-08-21T01:43:36;16.20;90.20
64143;DHT22;50437;51.970;5.904;2022-08-21T01:46:04;16.20;90.20
64143;DHT22;50437;51.970;5.904;2022-08-21T01:48:30;16.20;90.00
64143;DHT22;50437;51.970;5.904;2022-08-21T01:50:56;16.10;90.00
64143;DHT22;50437;51.970;5.904;2022-08-21T01:53:25;16.10;89.90
64143;DHT22;50437;51.970;5.904;2022-08-21T01:55:51;16.10;90.10
64143;DHT22;50437;51.970;5.904;2022-08-21T01:58:17;16.10;90.00
64143;DHT22;50437;51.970;5.904;2022-08-21T02:00:44;16.00;90.40
64143;DHT22;50437;51.970;5.904;2022-08-21T02:03:19;16.00;90.00
64143;DHT22;50437;51.970;5.904;2022-08-21T02:05:45;16.00;90.10
64143;DHT22;50437;51.970;5.904;2022-08-21T02:08:11;16.10;89.70
64143;DHT22;50437;51.970;5.904;2022-08-21T02:10:39;16.00;89.50
64143;DHT22;50437;51.970;5.904;2022-08-21T02:13:06;16.00;89.40
64143;DHT22;50437;51.970;5.904;2022-08-21T02:15:32;16.00;89.00
64143;DHT22;50437;51.970;5.904;2022-08-21T02:17:59;16.00;89.10
64143;DHT22;50437;51.970;5.904;2022-08-21T02:20:33;15.90;89.10
64143;DHT22;50437;51.970;5.904;2022-08-21T02:23:03;15.90;88.90
64143;DHT22;50437;51.970;5.904;2022-08-21T02:25:29;15.90;89.00
64143;DHT22;50437;51.970;5.904;2022-08-21T02:28:02;15.80;89.10
64143;DHT22;50437;51.970;5.904;2022-08-21T02:30:31;15.80;89.50
64143;DHT22;50437;51.970;5.904;2022-08-21T02:32:58;15.80;89.00
64143;DHT22;50437;51.970;5.904;2022-08-21T02:35:25;15.70;88.90
64143;DHT22;50437;51.970;5.904;2022-08-21T02:37:53;15.70;89.20
64143;DHT22;50437;51.970;5.904;2022-08-21T02:40:21;15.60;90.00
64143;DHT22;50437;51.970;5.904;2022-08-21T02:42:47;15.60;89.20
64143;DHT22;50437;51.970;5.904;2022-08-21T02:45:13;15.60;89.10
64143;DHT22;50437;51.970;5.904;2022-08-21T02:47:47;15.60;88.90
64143;DHT22;50437;51.970;5.904;2022-08-21T02:50:16;15.60;89.30
64143;DHT22;50437;51.970;5.904;2022-08-21T02:52:51;15.60;89.50
64143;DHT22;50437;51.970;5.904;2022-08-21T02:55:18;15.60;89.80
64143;DHT22;50437;51.970;5.904;2022-08-21T02:57:46;15.60;90.10
64143;DHT22;50437;51.970;5.904;2022-08-21T03:00:13;15.60;90.20
64143;DHT22;50437;51.970;5.904;2022-08-21T03:02:39;15.60;90.10
64143;DHT22;50437;51.970;5.904;2022-08-21T03:05:06;15.60;90.00
64143;DHT22;50437;51.970;5.904;2022-08-21T03:07:32;15.50;90.00
64143;DHT22;50437;51.970;5.904;2022-08-21T03:09:59;15.50;90.00
64143;DHT22;50437;51.970;5.904;2022-08-21T03:12:25;15.50;90.10
64143;DHT22;50437;51.970;5.904;2022-08-21T03:14:53;15.50;90.40
64143;DHT22;50437;51.970;5.904;2022-08-21T03:17:22;15.50;90.30
64143;DHT22;50437;51.970;5.904;2022-08-21T03:19:48;15.40;90.30
64143;DHT22;50437;51.970;5.904;2022-08-21T03:22:14;15.40;90.50
64143;DHT22;50437;51.970;5.904;2022-08-21T03:24:40;15.40;90.60
64143;DHT22;50437;51.970;5.904;2022-08-21T03:27:06;15.40;90.40
64143;DHT22;50437;51.970;5.904;2022-08-21T03:29:32;15.40;90.40
64143;DHT22;50437;51.970;5.904;2022-08-21T03:32:04;15.40;90.80
64143;DHT22;50437;51.970;5.904;2022-08-21T03:34:30;15.30;90.80
64143;DHT22;50437;51.970;5.904;2022-08-21T03:36:56;15.40;90.90
64143;DHT22;50437;51.970;5.904;2022-08-21T03:39:22;15.30;90.90
64143;DHT22;50437;51.970;5.904;2022-08-21T03:41:51;15.30;90.80
64143;DHT22;50437;51.970;5.904;2022-08-21T03:44:19;15.20;90.90
64143;DHT22;50437;51.970;5.904;2022-08-21T03:46:45;15.20;90.80
64143;DHT22;50437;51.970;5.904;2022-08-21T03:49:11;15.20;90.80
64143;DHT22;50437;51.970;5.904;2022-08-21T03:51:40;15.20;90.80
64143;DHT22;50437;51.970;5.904;2022-08-21T03:54:09;15.20;91.00
64143;DHT22;50437;51.970;5.904;2022-08-21T03:56:35;15.20;90.80
64143;DHT22;50437;51.970;5.904;2022-08-21T03:59:01;15.20;90.80
64143;DHT22;50437;51.970;5.904;2022-08-21T04:01:28;15.20;90.90
64143;DHT22;50437;51.970;5.904;2022-08-21T04:03:54;15.20;90.80
64143;DHT22;50437;51.970;5.904;2022-08-21T04:06:20;15.10;90.80
64143;DHT22;50437;51.970;5.904;2022-08-21T04:08:46;15.10;91.00
64143;DHT22;50437;51.970;5.904;2022-08-21T04:11:12;15.10;91.00
64143;DHT22;50437;51.970;5.904;2022-08-21T04:13:38;15.10;91.50
64143;DHT22;50437;51.970;5.904;2022-08-21T04:16:04;15.00;91.30
64143;DHT22;50437;51.970;5.904;2022-08-21T04:18:30;15.10;91.40
64143;DHT22;50437;51.970;5.904;2022-08-21T04:20:59;15.10;91.30
64143;DHT22;50437;51.970;5.904;2022-08-21T04:23:25;15.00;91.20
64143;DHT22;50437;51.970;5.904;2022-08-21T04:25:52;15.00;91.20
64143;DHT22;50437;51.970;5.904;2022-08-21T04:28:22;15.00;91.30
64143;DHT22;50437;51.970;5.904;2022-08-21T04:30:48;15.00;91.10
64143;DHT22;50437;51.970;5.904;2022-08-21T04:33:15;14.90;91.30
64143;DHT22;50437;51.970;5.904;2022-08-21T04:35:42;14.90;91.40
64143;DHT22;50437;51.970;5.904;2022-08-21T04:38:08;14.90;91.30
64143;DHT22;50437;51.970;5.904;2022-08-21T04:40:34;14.90;91.30
64143;DHT22;50437;51.970;5.904;2022-08-21T04:43:02;14.90;91.30
64143;DHT22;50437;51.970;5.904;2022-08-21T04:45:47;14.90;91.30
64143;DHT22;50437;51.970;5.904;2022-08-21T04:48:14;15.00;91.20
64143;DHT22;50437;51.970;5.904;2022-08-21T04:50:42;15.00;91.00
64143;DHT22;50437;51.970;5.904;2022-08-21T04:53:13;15.00;91.00
64143;DHT22;50437;51.970;5.904;2022-08-21T04:55:39;15.00;91.10
64143;DHT22;50437;51.970;5.904;2022-08-21T04:58:11;15.00;91.20
64143;DHT22;50437;51.970;5.904;2022-08-21T05:00:43;15.00;91.10
64143;DHT22;50437;51.970;5.904;2022-08-21T05:03:09;15.00;91.00
64143;DHT22;50437;51.970;5.904;2022-08-21T05:05:36;15.10;90.80
64143;DHT22;50437;51.970;5.904;2022-08-21T05:08:02;15.10;90.70
64143;DHT22;50437;51.970;5.904;2022-08-21T05:10:29;15.10;90.80
64143;DHT22;50437;51.970;5.904;2022-08-21T05:13:02;15.10;90.90
64143;DHT22;50437;51.970;5.904;2022-08-21T05:15:29;15.10;90.80
64143;DHT22;50437;51.970;5.904;2022-08-21T05:17:55;15.20;90.90
64143;DHT22;50437;51.970;5.904;2022-08-21T05:20:21;15.20;90.80
64143;DHT22;50437;51.970;5.904;2022-08-21T05:22:47;15.20;91.00
64143;DHT22;50437;51.970;5.904;2022-08-21T05:25:13;15.20;91.00
64143;DHT22;50437;51.970;5.904;2022-08-21T05:27:39;15.20;90.90
64143;DHT22;50437;51.970;5.904;2022-08-21T05:30:06;15.30;90.80
64143;DHT22;50437;51.970;5.904;2022-08-21T05:32:33;15.30;90.90
64143;DHT22;50437;51.970;5.904;2022-08-21T05:34:59;15.40;90.80
64143;DHT22;50437;51.970;5.904;2022-08-21T05:37:25;15.40;90.60
64143;DHT22;50437;51.970;5.904;2022-08-21T05:39:51;15.40;90.50
64143;DHT22;50437;51.970;5.904;2022-08-21T05:42:17;15.50;90.70
64143;DHT22;50437;51.970;5.904;2022-08-21T05:44:43;15.50;90.60
64143;DHT22;50437;51.970;5.904;2022-08-21T05:47:09;15.50;90.50
64143;DHT22;50437;51.970;5.904;2022-08-21T05:49:35;15.60;90.60
64143;DHT22;50437;51.970;5.904;2022-08-21T05:52:02;15.70;90.40
64143;DHT22;50437;51.970;5.904;2022-08-21T05:54:29;15.70;90.50
64143;DHT22;50437;51.970;5.904;2022-08-21T05:56:55;15.80;90.40
64143;DHT22;50437;51.970;5.904;2022-08-21T05:59:21;15.80;90.20
64143;DHT22;50437;51.970;5.904;2022-08-21T06:01:50;15.90;89.50
64143;DHT22;50437;51.970;5.904;2022-08-21T06:04:18;15.90;89.70
64143;DHT22;50437;51.970;5.904;2022-08-21T06:06:44;16.00;89.10
64143;DHT22;50437;51.970;5.904;2022-08-21T06:09:10;16.00;88.40
64143;DHT22;50437;51.970;5.904;2022-08-21T06:11:36;16.00;88.40
64143;DHT22;50437;51.970;5.904;2022-08-21T06:14:02;16.10;88.30
64143;DHT22;50437;51.970;5.904;2022-08-21T06:16:28;16.10;88.10
64143;DHT22;50437;51.970;5.904;2022-08-21T06:18:54;16.10;87.60
64143;DHT22;50437;51.970;5.904;2022-08-21T06:21:20;16.10;87.50
64143;DHT22;50437;51.970;5.904;2022-08-21T06:23:46;16.20;86.90
64143;DHT22;50437;51.970;5.904;2022-08-21T06:26:13;16.20;87.00
64143;DHT22;50437;51.970;5.904;2022-08-21T06:28:40;16.20;86.80
64143;DHT22;50437;51.970;5.904;2022-08-21T06:31:10;16.30;87.10
64143;DHT22;50437;51.970;5.904;2022-08-21T06:33:36;16.40;86.50
64143;DHT22;50437;51.970;5.904;2022-08-21T06:36:02;16.40;86.90
64143;DHT22;50437;51.970;5.904;2022-08-21T06:38:28;16.40;86.20
64143;DHT22;50437;51.970;5.904;2022-08-21T06:40:54;16.50;86.70
64143;DHT22;50437;51.970;5.904;2022-08-21T06:43:20;16.60;86.80
64143;DHT22;50437;51.970;5.904;2022-08-21T06:45:46;16.60;86.20
64143;DHT22;50437;51.970;5.904;2022-08-21T06:48:12;16.70;86.30
64143;DHT22;50437;51.970;5.904;2022-08-21T06:50:38;16.70;86.00
64143;DHT22;50437;51.970;5.904;2022-08-21T06:53:05;16.80;85.50
64143;DHT22;50437;51.970;5.904;2022-08-21T06:55:31;16.80;85.50
64143;DHT22;50437;51.970;5.904;2022-08-21T06:57:57;16.70;85.70
64143;DHT22;50437;51.970;5.904;2022-08-21T07:00:23;16.90;85.50
64143;DHT22;50437;51.970;5.904;2022-08-21T07:02:49;16.80;85.80
64143;DHT22;50437;51.970;5.904;2022-08-21T07:05:15;16.90;85.50
64143;DHT22;50437;51.970;5.904;2022-08-21T07:07:42;17.00;84.70
64143;DHT22;50437;51.970;5.904;2022-08-21T07:10:08;17.10;84.60
64143;DHT22;50437;51.970;5.904;2022-08-21T07:12:34;17.10;84.60
64143;DHT22;50437;51.970;5.904;2022-08-21T07:15:03;17.20;84.20
64143;DHT22;50437;51.970;5.904;2022-08-21T07:17:29;17.20;84.70
64143;DHT22;50437;51.970;5.904;2022-08-21T07:19:55;17.30;84.30
64143;DHT22;50437;51.970;5.904;2022-08-21T07:22:22;17.40;84.50
64143;DHT22;50437;51.970;5.904;2022-08-21T07:24:48;17.50;84.00
64143;DHT22;50437;51.970;5.904;2022-08-21T07:27:14;17.60;83.80
64143;DHT22;50437;51.970;5.904;2022-08-21T07:29:40;17.60;83.40
64143;DHT22;50437;51.970;5.904;2022-08-21T07:32:06;17.60;83.20
64143;DHT22;50437;51.970;5.904;2022-08-21T07:34:32;17.70;83.60
64143;DHT22;50437;51.970;5.904;2022-08-21T07:36:58;17.80;83.20
64143;DHT22;50437;51.970;5.904;2022-08-21T07:39:24;17.90;83.10
64143;DHT22;50437;51.970;5.904;2022-08-21T07:41:50;18.00;83.00
64143;DHT22;50437;51.970;5.904;2022-08-21T07:44:16;18.00;82.20
64143;DHT22;50437;51.970;5.904;2022-08-21T07:46:42;18.10;82.30
64143;DHT22;50437;51.970;5.904;2022-08-21T07:49:08;18.30;82.40
64143;DHT22;50437;51.970;5.904;2022-08-21T07:51:34;18.40;81.50
64143;DHT22;50437;51.970;5.904;2022-08-21T07:54:00;18.50;81.10
64143;DHT22;50437;51.970;5.904;2022-08-21T07:56:27;19.00;81.40
64143;DHT22;50437;51.970;5.904;2022-08-21T07:58:53;20.60;76.40
64143;DHT22;50437;51.970;5.904;2022-08-21T08:01:19;22.20;67.20
64143;DHT22;50437;51.970;5.904;2022-08-21T08:03:45;23.20;64.30
64143;DHT22;50437;51.970;5.904;2022-08-21T08:06:11;23.60;60.90
64143;DHT22;50437;51.970;5.904;2022-08-21T08:08:42;23.60;60.20
64143;DHT22;50437;51.970;5.904;2022-08-21T08:11:09;23.40;59.80
64143;DHT22;50437;51.970;5.904;2022-08-21T08:13:40;23.50;60.80
64143;DHT22;50437;51.970;5.904;2022-08-21T08:16:06;24.70;58.40
64143;DHT22;50437;51.970;5.904;2022-08-21T08:18:32;26.20;55.20
64143;DHT22;50437;51.970;5.904;2022-08-21T08:20:58;26.70;51.60
64143;DHT22;50437;51.970;5.904;2022-08-21T08:23:25;26.50;51.40
64143;DHT22;50437;51.970;5.904;2022-08-21T08:25:51;26.70;51.30
64143;DHT22;50437;51.970;5.904;2022-08-21T08:28:17;28.00;48.10
64143;DHT22;50437;51.970;5.904;2022-08-21T08:30:44;28.90;46.10
64143;DHT22;50437;51.970;5.904;2022-08-21T08:33:11;28.60;45.70
64143;DHT22;50437;51.970;5.904;2022-08-21T08:35:37;29.10;44.80
64143;DHT22;50437;51.970;5.904;2022-08-21T08:38:03;30.10;43.30
64143;DHT22;50437;51.970;5.904;2022-08-21T08:40:37;30.50;41.50
64143;DHT22;50437;51.970;5.904;2022-08-21T08:43:05;30.80;41.70
64143;DHT22;50437;51.970;5.904;2022-08-21T08:45:32;30.90;39.70
64143;DHT22;50437;51.970;5.904;2022-08-21T08:48:01;31.30;39.00
64143;DHT22;50437;51.970;5.904;2022-08-21T08:55:24;32.00;35.90
64143;DHT22;50437;51.970;5.904;2022-08-21T08:57:52;32.00;37.30
64143;DHT22;50437;51.970;5.904;2022-08-21T09:00:19;32.00;36.70
64143;DHT22;50437;51.970;5.904;2022-08-21T09:02:46;31.10;37.40
64143;DHT22;50437;51.970;5.904;2022-08-21T09:05:18;30.70;37.20
64143;DHT22;50437;51.970;5.904;2022-08-21T09:07:47;29.80;38.10
64143;DHT22;50437;51.970;5.904;2022-08-21T09:10:17;28.70;40.40
64143;DHT22;50437;51.970;5.904;2022-08-21T09:12:52;27.80;42.60
64143;DHT22;50437;51.970;5.904;2022-08-21T09:15:32;28.00;44.60
64143;DHT22;50437;51.970;5.904;2022-08-21T09:25:45;31.10;37.60
64143;DHT22;50437;51.970;5.904;2022-08-21T09:28:15;31.10;36.20
64143;DHT22;50437;51.970;5.904;2022-08-21T09:30:41;31.80;34.90
64143;DHT22;50437;51.970;5.904;2022-08-21T09:33:08;32.30;34.30
64143;DHT22;50437;51.970;5.904;2022-08-21T09:35:35;32.40;33.90
64143;DHT22;50437;51.970;5.904;2022-08-21T09:38:04;32.10;33.00
64143;DHT22;50437;51.970;5.904;2022-08-21T09:40:40;32.20;34.10
64143;DHT22;50437;51.970;5.904;2022-08-21T09:43:19;32.60;33.40
64143;DHT22;50437;51.970;5.904;2022-08-21T09:45:46;32.70;32.00
64143;DHT22;50437;51.970;5.904;2022-08-21T09:48:14;32.60;30.80
64143;DHT22;50437;51.970;5.904;2022-08-21T09:50:40;32.00;33.10
64143;DHT22;50437;51.970;5.904;2022-08-21T09:53:14;32.00;32.20
64143;DHT22;50437;51.970;5.904;2022-08-21T09:56:16;31.90;32.00
64143;DHT22;50437;51.970;5.904;2022-08-21T09:58:51;32.30;32.50
64143;DHT22;50437;51.970;5.904;2022-08-21T10:01:18;31.40;33.00
64143;DHT22;50437;51.970;5.904;2022-08-21T10:03:45;31.20;33.80
64143;DHT22;50437;51.970;5.904;2022-08-21T10:06:20;30.80;33.60
64143;DHT22;50437;51.970;5.904;2022-08-21T10:08:47;30.00;35.50
64143;DHT22;50437;51.970;5.904;2022-08-21T10:11:13;30.20;34.80
64143;DHT22;50437;51.970;5.904;2022-08-21T10:21:41;30.60;32.10
64143;DHT22;50437;51.970;5.904;2022-08-21T10:26:45;30.40;35.00
64143;DHT22;50437;51.970;5.904;2022-08-21T10:29:19;30.90;33.80
64143;DHT22;50437;51.970;5.904;2022-08-21T10:39:40;31.00;32.30
64143;DHT22;50437;51.970;5.904;2022-08-21T10:42:27;29.80;33.70
64143;DHT22;50437;51.970;5.904;2022-08-21T10:45:02;30.10;35.20
64143;DHT22;50437;51.970;5.904;2022-08-21T10:47:35;30.50;31.80
64143;DHT22;50437;51.970;5.904;2022-08-21T10:52:56;31.20;31.60
64143;DHT22;50437;51.970;5.904;2022-08-21T10:55:30;31.80;31.10
64143;DHT22;50437;51.970;5.904;2022-08-21T10:58:05;32.00;31.50
64143;DHT22;50437;51.970;5.904;2022-08-21T11:00:35;31.80;30.80
64143;DHT22;50437;51.970;5.904;2022-08-21T11:03:10;31.30;31.90
64143;DHT22;50437;51.970;5.904;2022-08-21T11:08:24;30.50;33.00
64143;DHT22;50437;51.970;5.904;2022-08-21T11:10:52;30.60;34.00
64143;DHT22;50437;51.970;5.904;2022-08-21T11:18:31;30.60;32.50
64143;DHT22;50437;51.970;5.904;2022-08-21T11:26:18;30.60;32.10
64143;DHT22;50437;51.970;5.904;2022-08-21T11:28:58;30.20;32.50
64143;DHT22;50437;51.970;5.904;2022-08-21T11:31:35;30.20;31.80
64143;DHT22;50437;51.970;5.904;2022-08-21T11:34:13;29.10;33.80
64143;DHT22;50437;51.970;5.904;2022-08-21T11:36:57;28.70;34.40
64143;DHT22;50437;51.970;5.904;2022-08-21T11:39:30;28.60;34.00
64143;DHT22;50437;51.970;5.904;2022-08-21T11:44:55;28.50;34.40
64143;DHT22;50437;51.970;5.904;2022-08-21T11:47:30;28.20;36.20
64143;DHT22;50437;51.970;5.904;2022-08-21T11:57:55;29.40;34.20
64143;DHT22;50437;51.970;5.904;2022-08-21T12:00:24;29.50;34.00
64143;DHT22;50437;51.970;5.904;2022-08-21T12:02:53;29.60;33.30
64143;DHT22;50437;51.970;5.904;2022-08-21T12:05:38;29.40;33.50
64143;DHT22;50437;51.970;5.904;2022-08-21T12:08:06;29.40;33.30
64143;DHT22;50437;51.970;5.904;2022-08-21T12:10:34;29.20;34.30
64143;DHT22;50437;51.970;5.904;2022-08-21T12:13:11;29.10;32.90
64143;DHT22;50437;51.970;5.904;2022-08-21T12:15:47;29.10;33.40
64143;DHT22;50437;51.970;5.904;2022-08-21T12:18:23;29.30;32.60
64143;DHT22;50437;51.970;5.904;2022-08-21T12:21:00;29.40;32.60
64143;DHT22;50437;51.970;5.904;2022-08-21T12:23:28;29.50;32.10
64143;DHT22;50437;51.970;5.904;2022-08-21T12:28:27;29.50;33.10
64143;DHT22;50437;51.970;5.904;2022-08-21T12:30:54;29.10;31.80
64143;DHT22;50437;51.970;5.904;2022-08-21T12:33:25;28.40;33.10
64143;DHT22;50437;51.970;5.904;2022-08-21T12:35:52;27.70;34.10
64143;DHT22;50437;51.970;5.904;2022-08-21T12:38:27;27.30;35.80
64143;DHT22;50437;51.970;5.904;2022-08-21T12:40:54;27.10;36.20
64143;DHT22;50437;51.970;5.904;2022-08-21T12:43:24;27.30;35.60
64143;DHT22;50437;51.970;5.904;2022-08-21T12:45:51;27.40;36.10
64143;DHT22;50437;51.970;5.904;2022-08-21T12:48:20;27.60;35.00
64143;DHT22;50437;51.970;5.904;2022-08-21T12:50:49;28.10;35.50
64143;DHT22;50437;51.970;5.904;2022-08-21T12:55:51;29.00;32.20
64143;DHT22;50437;51.970;5.904;2022-08-21T12:58:21;28.90;31.10
64143;DHT22;50437;51.970;5.904;2022-08-21T13:00:51;28.90;31.30
64143;DHT22;50437;51.970;5.904;2022-08-21T13:03:18;29.10;31.00
64143;DHT22;50437;51.970;5.904;2022-08-21T13:05:44;29.10;31.70
64143;DHT22;50437;51.970;5.904;2022-08-21T13:08:10;29.10;31.40
64143;DHT22;50437;51.970;5.904;2022-08-21T13:10:40;29.20;30.10
64143;DHT22;50437;51.970;5.904;2022-08-21T13:13:08;29.30;30.80
64143;DHT22;50437;51.970;5.904;2022-08-21T13:15:36;28.90;30.00
64143;DHT22;50437;51.970;5.904;2022-08-21T13:18:03;29.00;30.50
64143;DHT22;50437;51.970;5.904;2022-08-21T13:20:34;29.00;30.80
64143;DHT22;50437;51.970;5.904;2022-08-21T13:23:01;28.60;30.20
64143;DHT22;50437;51.970;5.904;2022-08-21T13:25:29;28.30;31.20
64143;DHT22;50437;51.970;5.904;2022-08-21T13:28:09;28.50;31.20
64143;DHT22;50437;51.970;5.904;2022-08-21T13:30:44;28.50;30.90
64143;DHT22;50437;51.970;5.904;2022-08-21T13:33:12;28.80;29.80
64143;DHT22;50437;51.970;5.904;2022-08-21T13:35:46;28.70;30.00
64143;DHT22;50437;51.970;5.904;2022-08-21T13:38:13;28.60;30.20
64143;DHT22;50437;51.970;5.904;2022-08-21T13:40:44;28.80;30.70
64143;DHT22;50437;51.970;5.904;2022-08-21T13:43:12;28.80;30.50
64143;DHT22;50437;51.970;5.904;2022-08-21T13:45:38;28.50;32.30
64143;DHT22;50437;51.970;5.904;2022-08-21T13:48:08;28.50;31.40
64143;DHT22;50437;51.970;5.904;2022-08-21T13:50:35;28.60;32.00
64143;DHT22;50437;51.970;5.904;2022-08-21T13:53:06;28.60;31.00
64143;DHT22;50437;51.970;5.904;2022-08-21T13:55:39;28.70;30.60
64143;DHT22;50437;51.970;5.904;2022-08-21T13:58:05;28.70;31.70
64143;DHT22;50437;51.970;5.904;2022-08-21T14:00:32;28.50;30.60
64143;DHT22;50437;51.970;5.904;2022-08-21T14:03:05;28.40;30.50
64143;DHT22;50437;51.970;5.904;2022-08-21T14:05:33;28.40;30.60
64143;DHT22;50437;51.970;5.904;2022-08-21T14:08:07;28.50;30.80
64143;DHT22;50437;51.970;5.904;2022-08-21T14:10:35;28.70;30.70
64143;DHT22;50437;51.970;5.904;2022-08-21T14:13:02;28.80;30.70
64143;DHT22;50437;51.970;5.904;2022-08-21T14:15:30;28.90;30.10
64143;DHT22;50437;51.970;5.904;2022-08-21T14:20:35;29.00;29.50
64143;DHT22;50437;51.970;5.904;2022-08-21T14:23:02;29.00;29.40
64143;DHT22;50437;51.970;5.904;2022-08-21T14:25:29;29.10;30.00
64143;DHT22;50437;51.970;5.904;2022-08-21T14:28:41;29.10;30.70
64143;DHT22;50437;51.970;5.904;2022-08-21T14:30:45;29.10;31.10
64143;DHT22;50437;51.970;5.904;2022-08-21T14:33:12;29.30;29.40
64143;DHT22;50437;51.970;5.904;2022-08-21T14:35:40;29.20;29.30
64143;DHT22;50437;51.970;5.904;2022-08-21T14:38:13;29.10;29.80
64143;DHT22;50437;51.970;5.904;2022-08-21T14:40:40;29.00;30.00
64143;DHT22;50437;51.970;5.904;2022-08-21T14:43:06;28.80;29.90
64143;DHT22;50437;51.970;5.904;2022-08-21T14:45:33;28.70;30.00
64143;DHT22;50437;51.970;5.904;2022-08-21T14:48:00;28.50;31.60
64143;DHT22;50437;51.970;5.904;2022-08-21T14:50:29;28.60;30.80
64143;DHT22;50437;51.970;5.904;2022-08-21T14:52:55;28.50;31.10
64143;DHT22;50437;51.970;5.904;2022-08-21T14:55:21;28.50;31.80
64143;DHT22;50437;51.970;5.904;2022-08-21T14:57:48;28.40;31.30
64143;DHT22;50437;51.970;5.904;2022-08-21T15:00:17;28.30;32.30
64143;DHT22;50437;51.970;5.904;2022-08-21T15:02:43;27.90;32.60
64143;DHT22;50437;51.970;5.904;2022-08-21T15:05:10;27.90;32.60
64143;DHT22;50437;51.970;5.904;2022-08-21T15:07:36;27.80;33.30
64143;DHT22;50437;51.970;5.904;2022-08-21T15:10:04;28.10;32.30
64143;DHT22;50437;51.970;5.904;2022-08-21T15:12:30;28.20;31.50
64143;DHT22;50437;51.970;5.904;2022-08-21T15:14:56;28.00;31.70
64143;DHT22;50437;51.970;5.904;2022-08-21T15:17:22;27.80;31.90
64143;DHT22;50437;51.970;5.904;2022-08-21T15:19:48;27.90;32.10
64143;DHT22;50437;51.970;5.904;2022-08-21T15:22:14;28.10;31.60
64143;DHT22;50437;51.970;5.904;2022-08-21T15:24:40;28.30;30.20
64143;DHT22;50437;51.970;5.904;2022-08-21T15:27:07;28.30;30.30
64143;DHT22;50437;51.970;5.904;2022-08-21T15:29:34;28.30;30.50
64143;DHT22;50437;51.970;5.904;2022-08-21T15:32:02;28.10;29.80
64143;DHT22;50437;51.970;5.904;2022-08-21T15:34:29;27.90;30.60
64143;DHT22;50437;51.970;5.904;2022-08-21T15:36:58;27.80;31.20
64143;DHT22;50437;51.970;5.904;2022-08-21T15:39:24;27.50;31.20
64143;DHT22;50437;51.970;5.904;2022-08-21T15:41:51;27.40;31.70
64143;DHT22;50437;51.970;5.904;2022-08-21T15:44:26;27.20;31.50
64143;DHT22;50437;51.970;5.904;2022-08-21T15:46:53;26.80;32.90
64143;DHT22;50437;51.970;5.904;2022-08-21T15:49:19;26.50;33.60
64143;DHT22;50437;51.970;5.904;2022-08-21T15:51:45;26.30;34.80
64143;DHT22;50437;51.970;5.904;2022-08-21T15:54:11;26.10;34.70
64143;DHT22;50437;51.970;5.904;2022-08-21T15:56:38;26.00;35.80
64143;DHT22;50437;51.970;5.904;2022-08-21T15:59:07;26.00;36.10
64143;DHT22;50437;51.970;5.904;2022-08-21T16:01:34;25.90;36.60
64143;DHT22;50437;51.970;5.904;2022-08-21T16:04:01;25.80;36.80
64143;DHT22;50437;51.970;5.904;2022-08-21T16:06:28;25.80;36.40
64143;DHT22;50437;51.970;5.904;2022-08-21T16:08:54;25.60;36.70
64143;DHT22;50437;51.970;5.904;2022-08-21T16:11:20;25.40;37.30
64143;DHT22;50437;51.970;5.904;2022-08-21T16:13:46;25.30;37.70
64143;DHT22;50437;51.970;5.904;2022-08-21T16:16:15;25.20;37.70
64143;DHT22;50437;51.970;5.904;2022-08-21T16:18:41;25.00;38.50
64143;DHT22;50437;51.970;5.904;2022-08-21T16:21:08;25.10;38.70
64143;DHT22;50437;51.970;5.904;2022-08-21T16:23:34;25.00;38.50
64143;DHT22;50437;51.970;5.904;2022-08-21T16:26:04;24.80;38.80
64143;DHT22;50437;51.970;5.904;2022-08-21T16:28:31;24.60;38.90
64143;DHT22;50437;51.970;5.904;2022-08-21T16:30:57;24.60;38.80
64143;DHT22;50437;51.970;5.904;2022-08-21T16:33:29;24.60;38.50
64143;DHT22;50437;51.970;5.904;2022-08-21T16:35:56;24.70;38.80
64143;DHT22;50437;51.970;5.904;2022-08-21T16:38:22;24.70;38.60
64143;DHT22;50437;51.970;5.904;2022-08-21T16:40:48;24.70;39.10